Time;durP1;ratioP1;P1;durP2;ratioP2;P2;SDS_P1;SDS_P2;PMS_P1;PMS_P2;Temp;Humidity;BMP_temperature;BMP_pressure;BME280_temperature;BME280_humidity;BME280_pressure;Samples;Min_cycle;Max_cycle;Signal;HPM_P1;HPM_P2
2023/09/07 00:01:33;;;;;;;15.57;11.13;;;19.30;99.90;;;;;;4974100;28;20042;-91
2023/09/07 00:03:58;;;;;;;16.55;11.18;;;19.30;99.90;;;;;;4974883;28;20035;-91
2023/09/07 00:06:25;;;;;;;18.23;11.70;;;19.30;99.90;;;;;;4975336;28;20023;-91
2023/09/07 00:08:51;;;;;;;21.20;12.40;;;19.20;99.90;;;;;;4974031;28;20038;-91
2023/09/07 00:11:16;;;;;;;16.73;11.93;;;19.20;99.90;;;;;;4973379;28;20031;-91
2023/09/07 00:13:45;;;;;;;16.20;10.63;;;19.20;99.90;;;;;;4973507;28;20130;-90
2023/09/07 00:16:10;;;;;;;17.50;11.98;;;19.20;99.90;;;;;;4973768;28;20034;-91
2023/09/07 00:18:36;;;;;;;15.90;12.00;;;19.20;99.90;;;;;;4975079;28;20027;-88
2023/09/07 00:21:02;;;;;;;22.70;11.52;;;19.20;99.90;;;;;;4973679;28;20114;-92
2023/09/07 00:23:29;;;;;;;16.60;11.55;;;19.10;99.90;;;;;;4976383;28;20023;-88
2023/09/07 00:25:55;;;;;;;16.85;11.15;;;19.10;99.90;;;;;;4975584;28;20363;-88
2023/09/07 00:28:21;;;;;;;17.85;11.27;;;19.10;99.90;;;;;;4972946;28;20086;-89
2023/09/07 00:30:46;;;;;;;17.10;11.52;;;19.10;99.90;;;;;;4973277;28;20089;-91
2023/09/07 00:33:12;;;;;;;17.02;11.10;;;19.10;99.90;;;;;;4976200;28;20486;-93
2023/09/07 00:35:37;;;;;;;17.60;11.27;;;19.00;99.90;;;;;;4977089;28;20147;-89
2023/09/07 00:38:03;;;;;;;20.85;11.20;;;19.00;99.90;;;;;;4977586;28;20034;-92
2023/09/07 00:40:30;;;;;;;16.50;11.90;;;19.00;99.90;;;;;;4977684;28;20030;-92
2023/09/07 00:42:55;;;;;;;15.40;10.75;;;18.90;99.90;;;;;;4977366;28;20038;-89
2023/09/07 00:45:21;;;;;;;18.52;11.45;;;18.90;99.90;;;;;;4977194;28;20363;-91
2023/09/07 00:47:47;;;;;;;17.92;12.00;;;18.90;99.90;;;;;;4976663;28;20493;-91
2023/09/07 00:50:14;;;;;;;20.38;11.68;;;18.80;99.90;;;;;;4977860;28;20033;-91
2023/09/07 00:52:42;;;;;;;17.08;11.70;;;18.80;99.90;;;;;;4976828;28;20046;-91
2023/09/07 00:55:08;;;;;;;16.95;12.30;;;18.70;99.90;;;;;;4976477;28;20674;-91
2023/09/07 00:57:35;;;;;;;19.27;11.93;;;18.70;99.90;;;;;;4977721;28;20085;-89
2023/09/07 01:00:01;;;;;;;16.52;11.35;;;18.70;99.90;;;;;;4976784;28;20490;-91
2023/09/07 01:02:27;;;;;;;21.63;13.23;;;18.70;99.90;;;;;;4977788;28;20038;-89
2023/09/07 01:04:53;;;;;;;17.98;11.93;;;18.60;99.90;;;;;;4977275;28;20073;-92
2023/09/07 01:07:23;;;;;;;16.88;11.68;;;18.60;99.90;;;;;;4976132;28;20034;-90
2023/09/07 01:09:53;;;;;;;17.83;11.98;;;18.60;99.90;;;;;;4977492;28;20027;-92
2023/09/07 01:12:19;;;;;;;18.30;12.87;;;18.60;99.90;;;;;;4977686;28;20098;-91
2023/09/07 01:14:46;;;;;;;19.15;11.52;;;18.60;99.90;;;;;;4979593;28;20027;-90
2023/09/07 01:17:13;;;;;;;21.20;12.05;;;18.60;99.90;;;;;;4976545;28;20568;-91
2023/09/07 01:19:39;;;;;;;15.90;12.10;;;18.50;99.90;;;;;;4976456;28;20030;-91
2023/09/07 01:22:09;;;;;;;17.38;12.32;;;18.50;99.90;;;;;;4976926;28;20051;-92
2023/09/07 01:24:37;;;;;;;16.90;12.32;;;18.40;99.90;;;;;;4985942;28;20350;-92
2023/09/07 01:27:04;;;;;;;18.25;12.35;;;18.30;99.90;;;;;;4977786;28;20126;-91
2023/09/07 01:29:30;;;;;;;21.02;13.32;;;18.30;99.90;;;;;;4976716;28;20483;-92
2023/09/07 01:31:57;;;;;;;20.40;13.10;;;18.20;99.90;;;;;;4976047;28;20069;-92
2023/09/07 01:34:23;;;;;;;20.48;12.77;;;18.20;99.90;;;;;;4975874;28;20154;-90
2023/09/07 01:36:49;;;;;;;18.50;12.05;;;18.30;99.90;;;;;;4976814;28;20475;-92
2023/09/07 01:39:15;;;;;;;15.75;12.10;;;18.30;99.90;;;;;;4978543;28;20030;-92
2023/09/07 01:41:40;;;;;;;19.92;12.82;;;18.20;99.90;;;;;;4977809;28;20091;-93
2023/09/07 01:44:06;;;;;;;19.98;12.43;;;18.20;99.90;;;;;;4976039;28;20138;-93
2023/09/07 01:46:32;;;;;;;22.98;14.02;;;18.20;99.90;;;;;;4975659;28;20026;-90
2023/09/07 01:48:57;;;;;;;15.35;11.85;;;18.10;99.90;;;;;;4976135;28;20041;-91
2023/09/07 01:51:27;;;;;;;19.90;12.63;;;18.10;99.90;;;;;;4975271;28;20492;-90
2023/09/07 01:53:53;;;;;;;17.97;11.77;;;18.00;99.90;;;;;;4975644;28;20470;-92
2023/09/07 01:56:19;;;;;;;19.90;13.10;;;18.00;99.90;;;;;;4975494;28;20430;-91
2023/09/07 01:58:45;;;;;;;17.92;13.15;;;17.90;99.90;;;;;;4976587;28;20110;-91
2023/09/07 02:01:40;;;;;;;22.20;13.23;;;17.90;99.90;;;;;;4975421;28;20547;-91
2023/09/07 02:04:06;;;;;;;19.60;12.30;;;17.90;99.90;;;;;;4967300;28;20035;-91
2023/09/07 02:06:32;;;;;;;18.77;12.10;;;17.90;99.90;;;;;;4975173;28;20030;-91
2023/09/07 02:08:57;;;;;;;16.35;11.10;;;17.90;99.90;;;;;;4975333;28;20105;-91
2023/09/07 02:11:23;;;;;;;18.40;11.82;;;17.90;99.90;;;;;;4976042;28;20034;-90
2023/09/07 02:13:49;;;;;;;22.33;12.38;;;17.90;99.90;;;;;;4975416;28;20097;-90
2023/09/07 02:16:15;;;;;;;19.30;12.93;;;17.90;99.90;;;;;;4974837;28;20477;-92
2023/09/07 02:18:43;;;;;;;17.80;12.50;;;17.90;99.90;;;;;;4974852;28;20031;-91
2023/09/07 02:21:09;;;;;;;18.92;11.98;;;17.90;99.90;;;;;;4982831;28;20022;-90
2023/09/07 02:23:38;;;;;;;19.80;13.32;;;17.90;99.90;;;;;;4980344;28;20066;-90
2023/09/07 02:26:04;;;;;;;20.40;12.70;;;17.90;99.90;;;;;;4979737;28;20110;-91
2023/09/07 02:28:30;;;;;;;24.35;13.40;;;17.90;99.90;;;;;;4984763;28;20038;-90
2023/09/07 02:31:06;;;;;;;18.38;12.80;;;17.90;99.90;;;;;;4984114;28;20026;-92
2023/09/07 02:33:32;;;;;;;17.88;12.25;;;17.80;99.90;;;;;;4982340;28;20066;-91
2023/09/07 02:35:58;;;;;;;20.23;13.23;;;17.80;99.90;;;;;;4982266;28;20030;-91
2023/09/07 02:38:24;;;;;;;18.33;13.02;;;17.70;99.90;;;;;;4979566;28;20074;-92
2023/09/07 02:40:50;;;;;;;22.25;12.85;;;17.70;99.90;;;;;;4979926;28;20031;-90
2023/09/07 02:43:16;;;;;;;18.77;13.02;;;17.70;99.90;;;;;;4977604;28;20067;-91
2023/09/07 02:45:42;;;;;;;21.15;14.35;;;17.70;99.90;;;;;;4975581;28;20018;-90
2023/09/07 02:48:07;;;;;;;22.20;15.15;;;17.60;99.90;;;;;;4975490;28;20034;-92
2023/09/07 02:50:34;;;;;;;28.25;15.20;;;17.50;99.90;;;;;;4975913;28;20030;-92
2023/09/07 02:53:00;;;;;;;26.10;15.25;;;17.50;99.90;;;;;;4975812;28;20058;-90
2023/09/07 02:55:27;;;;;;;21.85;14.30;;;17.40;99.90;;;;;;4977174;28;20062;-91
2023/09/07 02:57:53;;;;;;;20.33;13.80;;;17.40;99.90;;;;;;4980589;28;20023;-91
2023/09/07 03:00:19;;;;;;;23.08;14.00;;;17.40;99.90;;;;;;4975275;28;20029;-90
2023/09/07 03:02:45;;;;;;;23.83;15.10;;;17.40;99.90;;;;;;4974693;28;20114;-90
2023/09/07 03:05:10;;;;;;;19.10;13.35;;;17.50;99.90;;;;;;4974006;28;20023;-91
2023/09/07 03:07:36;;;;;;;18.88;13.70;;;17.50;99.90;;;;;;4974351;28;20084;-92
2023/09/07 03:10:02;;;;;;;22.55;14.93;;;17.50;99.90;;;;;;4975618;28;20019;-90
2023/09/07 03:12:28;;;;;;;23.25;14.43;;;17.50;99.90;;;;;;4979375;28;20122;-89
2023/09/07 03:14:54;;;;;;;23.48;15.00;;;17.40;99.90;;;;;;4979026;28;20033;-90
2023/09/07 03:17:20;;;;;;;24.08;14.13;;;17.40;99.90;;;;;;4974034;28;20030;-92
2023/09/07 03:19:47;;;;;;;23.38;14.70;;;17.40;99.90;;;;;;4974437;28;20178;-91
2023/09/07 03:22:13;;;;;;;17.75;13.10;;;17.40;99.90;;;;;;4978800;28;20031;-91
2023/09/07 03:24:39;;;;;;;20.73;14.32;;;17.50;99.90;;;;;;4982305;28;20026;-90
2023/09/07 03:27:05;;;;;;;22.02;13.38;;;17.50;99.90;;;;;;4975221;28;20034;-91
2023/09/07 03:29:33;;;;;;;22.70;14.40;;;17.50;99.90;;;;;;4973851;28;20487;-90
2023/09/07 03:31:59;;;;;;;22.77;13.98;;;17.50;99.90;;;;;;4974545;28;20035;-92
2023/09/07 03:34:25;;;;;;;22.20;13.18;;;17.50;99.90;;;;;;4974663;28;20094;-92
2023/09/07 03:36:51;;;;;;;24.10;14.68;;;17.40;99.90;;;;;;4973782;28;20039;-92
2023/09/07 03:39:18;;;;;;;19.58;13.70;;;17.40;99.90;;;;;;4974092;28;20023;-91
2023/09/07 03:41:44;;;;;;;21.13;13.48;;;17.40;99.90;;;;;;4973650;28;20030;-90
2023/09/07 03:44:10;;;;;;;19.90;13.57;;;17.40;99.90;;;;;;4973485;28;20034;-91
2023/09/07 03:46:36;;;;;;;23.23;13.52;;;17.40;99.90;;;;;;4973982;28;20023;-90
2023/09/07 03:49:02;;;;;;;22.30;13.48;;;17.40;99.90;;;;;;4975466;28;20022;-91
2023/09/07 03:51:28;;;;;;;22.00;13.77;;;17.40;99.90;;;;;;4974895;28;20031;-92
2023/09/07 03:53:54;;;;;;;20.23;13.10;;;17.30;99.90;;;;;;4973753;28;20062;-91
2023/09/07 03:56:19;;;;;;;19.23;13.55;;;17.40;99.90;;;;;;4972999;28;20046;-92
2023/09/07 03:58:47;;;;;;;20.48;12.93;;;17.40;99.90;;;;;;4973221;28;20130;-91
2023/09/07 04:01:13;;;;;;;24.27;12.80;;;17.40;99.90;;;;;;4973722;28;20030;-91
2023/09/07 04:03:40;;;;;;;23.30;14.25;;;17.40;99.90;;;;;;4973612;28;20022;-92
2023/09/07 04:06:06;;;;;;;23.20;14.38;;;17.40;99.90;;;;;;4972896;28;20023;-91
2023/09/07 04:08:32;;;;;;;25.73;14.48;;;17.40;99.90;;;;;;4973678;28;20041;-93
2023/09/07 04:10:57;;;;;;;27.35;15.65;;;17.40;99.90;;;;;;4972745;28;20030;-91
2023/09/07 04:13:23;;;;;;;21.60;14.75;;;17.40;99.90;;;;;;4974084;28;20030;-92
2023/09/07 04:15:49;;;;;;;25.00;14.90;;;17.30;99.90;;;;;;4973193;28;20077;-92
2023/09/07 04:18:16;;;;;;;41.83;14.95;;;17.30;99.90;;;;;;4975675;28;20023;-91
2023/09/07 04:20:42;;;;;;;21.73;14.55;;;17.30;99.90;;;;;;4974867;28;20015;-90
2023/09/07 04:23:08;;;;;;;28.25;15.40;;;17.30;99.90;;;;;;4974854;28;20478;-93
2023/09/07 04:25:34;;;;;;;29.00;16.40;;;17.30;99.90;;;;;;4973033;28;20062;-93
2023/09/07 04:28:00;;;;;;;24.55;15.18;;;17.30;99.90;;;;;;4973444;28;20145;-94
2023/09/07 04:30:26;;;;;;;34.05;15.93;;;17.30;99.90;;;;;;4972986;28;20019;-94
2023/09/07 04:32:52;;;;;;;28.35;15.70;;;17.20;99.90;;;;;;4973245;28;20035;-93
2023/09/07 04:35:17;;;;;;;28.85;16.30;;;17.20;99.90;;;;;;4973467;28;20486;-90
2023/09/07 04:37:44;;;;;;;26.00;15.70;;;17.20;99.90;;;;;;4973690;28;20497;-92
2023/09/07 04:40:10;;;;;;;26.50;15.95;;;17.20;99.90;;;;;;4977117;28;20097;-90
2023/09/07 04:42:36;;;;;;;23.63;15.40;;;17.20;99.90;;;;;;4976532;28;20039;-92
2023/09/07 04:45:03;;;;;;;23.60;16.10;;;17.20;99.90;;;;;;4972189;28;20075;-92
2023/09/07 04:47:28;;;;;;;25.88;16.38;;;17.10;99.90;;;;;;4972803;28;20037;-92
2023/09/07 04:49:54;;;;;;;28.45;15.77;;;17.10;99.90;;;;;;4973526;28;20026;-91
2023/09/07 04:52:20;;;;;;;22.27;15.10;;;17.20;99.90;;;;;;4973930;28;20569;-93
2023/09/07 04:54:45;;;;;;;24.65;14.13;;;17.20;99.90;;;;;;4972293;28;20507;-91
2023/09/07 04:57:12;;;;;;;28.77;15.20;;;17.10;99.90;;;;;;4972335;28;20113;-93
2023/09/07 04:59:37;;;;;;;25.80;15.32;;;17.10;99.90;;;;;;4972276;28;20027;-92
2023/09/07 05:02:03;;;;;;;24.17;14.90;;;17.00;99.90;;;;;;4972800;28;20029;-91
2023/09/07 05:04:30;;;;;;;23.45;14.60;;;17.00;99.90;;;;;;4974148;28;20106;-92
2023/09/07 05:06:56;;;;;;;22.95;15.10;;;17.00;99.90;;;;;;4973093;28;20049;-93
2023/09/07 05:09:23;;;;;;;27.80;15.68;;;16.90;99.90;;;;;;4973173;28;20022;-92
2023/09/07 05:11:49;;;;;;;25.25;16.15;;;16.90;99.90;;;;;;4972791;28;20030;-88
2023/09/07 05:14:15;;;;;;;25.35;16.02;;;16.90;99.90;;;;;;4972882;28;20037;-93
2023/09/07 05:16:43;;;;;;;26.23;15.85;;;16.90;99.90;;;;;;4975056;28;20434;-91
2023/09/07 05:19:09;;;;;;;23.45;15.13;;;16.90;99.90;;;;;;4976519;28;20458;-93
2023/09/07 05:21:35;;;;;;;27.65;16.65;;;17.00;99.90;;;;;;4985277;28;20030;-89
2023/09/07 05:24:00;;;;;;;26.42;16.35;;;17.00;99.90;;;;;;4990801;28;20545;-90
2023/09/07 05:26:26;;;;;;;27.42;16.08;;;17.00;99.90;;;;;;4988743;28;20098;-90
2023/09/07 05:28:52;;;;;;;26.45;16.60;;;17.00;99.90;;;;;;4987439;28;20076;-89
2023/09/07 05:31:18;;;;;;;24.38;15.75;;;17.00;99.90;;;;;;4985111;28;20023;-90
2023/09/07 05:33:43;;;;;;;28.52;16.58;;;17.10;99.90;;;;;;4983979;28;20081;-89
2023/09/07 05:36:09;;;;;;;26.92;15.68;;;17.10;99.90;;;;;;4982024;28;20110;-91
2023/09/07 05:38:35;;;;;;;29.40;16.20;;;17.10;99.90;;;;;;4978477;28;20033;-91
2023/09/07 05:41:01;;;;;;;24.25;15.45;;;17.10;99.90;;;;;;4976636;28;20039;-92
2023/09/07 05:43:26;;;;;;;23.02;14.90;;;17.10;99.90;;;;;;4977512;28;20026;-92
2023/09/07 05:45:52;;;;;;;29.10;16.38;;;17.10;99.90;;;;;;4976815;28;20033;-92
2023/09/07 05:48:18;;;;;;;24.05;15.82;;;17.00;99.90;;;;;;4976688;28;20548;-92
2023/09/07 05:50:43;;;;;;;26.08;15.57;;;17.00;99.90;;;;;;4976400;28;20029;-92
2023/09/07 05:53:09;;;;;;;24.20;15.85;;;17.00;99.90;;;;;;4975537;28;20528;-93
2023/09/07 05:55:35;;;;;;;29.77;17.65;;;17.00;99.90;;;;;;4976590;28;20157;-92
2023/09/07 05:58:06;;;;;;;24.13;15.70;;;17.10;99.90;;;;;;4975440;28;20038;-92
2023/09/07 06:00:32;;;;;;;23.08;14.95;;;17.10;99.90;;;;;;4990332;28;20019;-94
2023/09/07 06:02:58;;;;;;;26.05;15.70;;;17.10;99.90;;;;;;4975963;28;20023;-93
2023/09/07 06:05:23;;;;;;;29.55;17.42;;;17.20;99.90;;;;;;4976476;28;20035;-93
2023/09/07 06:07:49;;;;;;;29.25;16.60;;;17.20;99.90;;;;;;4979053;28;20042;-92
2023/09/07 06:10:15;;;;;;;26.42;15.98;;;17.20;99.90;;;;;;4982355;28;20034;-89
2023/09/07 06:12:41;;;;;;;26.40;16.08;;;17.20;99.90;;;;;;4981998;28;20043;-94
2023/09/07 06:15:07;;;;;;;26.67;16.25;;;17.20;99.90;;;;;;4977227;28;20050;-95
2023/09/07 06:17:33;;;;;;;28.42;14.82;;;17.20;99.90;;;;;;4975280;28;20031;-91
2023/09/07 06:19:58;;;;;;;24.42;15.50;;;17.20;99.90;;;;;;4975901;28;20173;-91
2023/09/07 06:22:24;;;;;;;27.38;16.40;;;17.20;99.90;;;;;;4977048;28;20035;-91
2023/09/07 06:24:50;;;;;;;28.42;16.63;;;17.30;99.90;;;;;;4976788;28;20027;-90
2023/09/07 06:27:16;;;;;;;25.42;16.17;;;17.30;99.90;;;;;;4975958;28;20027;-91
2023/09/07 06:29:42;;;;;;;27.60;16.55;;;17.30;99.90;;;;;;4974135;28;20215;-90
2023/09/07 06:32:07;;;;;;;25.58;14.75;;;17.40;99.90;;;;;;4975259;28;20031;-90
2023/09/07 06:34:33;;;;;;;27.70;15.73;;;17.40;99.90;;;;;;4982993;28;20042;-92
2023/09/07 06:36:58;;;;;;;26.60;15.25;;;17.50;99.90;;;;;;4982491;28;20054;-88
2023/09/07 06:39:24;;;;;;;28.85;16.15;;;17.60;99.90;;;;;;4984329;28;20022;-91
2023/09/07 06:41:50;;;;;;;26.17;15.50;;;17.60;99.90;;;;;;4983919;28;20018;-89
2023/09/07 06:44:15;;;;;;;28.17;16.08;;;17.70;99.90;;;;;;4982637;28;20121;-90
2023/09/07 06:46:41;;;;;;;26.27;16.42;;;17.70;99.90;;;;;;4985621;28;20018;-91
2023/09/07 06:49:07;;;;;;;28.02;16.90;;;17.70;99.90;;;;;;4985110;28;20022;-90
2023/09/07 06:51:33;;;;;;;28.75;16.70;;;17.80;99.90;;;;;;4984909;28;20037;-89
2023/09/07 06:53:59;;;;;;;27.40;16.15;;;17.80;99.90;;;;;;4984583;28;20606;-90
2023/09/07 06:56:26;;;;;;;27.08;15.77;;;17.80;99.90;;;;;;4982445;28;20031;-91
2023/09/07 06:58:53;;;;;;;26.08;15.75;;;17.80;99.90;;;;;;4982523;28;20071;-91
2023/09/07 07:01:19;;;;;;;33.40;15.00;;;17.90;99.90;;;;;;4983682;28;20022;-90
2023/09/07 07:03:44;;;;;;;28.35;15.65;;;18.00;99.90;;;;;;4994157;28;20367;-91
2023/09/07 07:06:10;;;;;;;28.65;15.65;;;18.10;99.90;;;;;;4991544;28;20030;-89
2023/09/07 07:08:35;;;;;;;26.65;16.08;;;18.20;99.90;;;;;;4994005;28;20023;-87
2023/09/07 07:11:01;;;;;;;24.88;15.95;;;18.20;99.90;;;;;;4993857;28;20056;-91
2023/09/07 07:13:27;;;;;;;25.70;16.48;;;18.30;99.90;;;;;;4993102;28;20624;-91
2023/09/07 07:15:52;;;;;;;22.08;14.10;;;18.30;99.90;;;;;;4993014;28;20125;-90
2023/09/07 07:18:18;;;;;;;26.30;14.82;;;18.50;99.90;;;;;;4982628;28;20069;-91
2023/09/07 07:20:44;;;;;;;30.85;17.48;;;18.50;99.90;;;;;;4981090;28;20030;-89
2023/09/07 07:23:12;;;;;;;29.15;18.15;;;18.60;99.90;;;;;;4981261;28;20038;-89
2023/09/07 07:25:38;;;;;;;33.75;17.15;;;18.60;99.90;;;;;;4972323;28;20019;-88
2023/09/07 07:28:07;;;;;;;28.95;17.95;;;18.60;99.90;;;;;;4974113;28;20019;-91
2023/09/07 07:30:40;;;;;;;28.15;18.75;;;18.70;99.90;;;;;;4956478;28;20030;-89
2023/09/07 07:33:07;;;;;;;31.48;19.58;;;18.70;99.90;;;;;;4973780;28;20043;-92
2023/09/07 07:35:36;;;;;;;29.95;17.15;;;18.80;99.90;;;;;;4974008;28;20022;-91
2023/09/07 07:38:03;;;;;;;29.98;17.80;;;18.90;99.90;;;;;;4973368;28;20129;-89
2023/09/07 07:40:32;;;;;;;33.30;19.02;;;18.90;99.90;;;;;;4973721;28;20023;-91
2023/09/07 07:42:58;;;;;;;37.53;19.08;;;19.00;99.90;;;;;;4972419;28;20031;-90
2023/09/07 07:45:24;;;;;;;31.73;17.13;;;19.10;99.90;;;;;;4974036;28;20495;-89
2023/09/07 07:47:50;;;;;;;29.73;18.73;;;19.20;99.90;;;;;;4974211;28;20039;-91
2023/09/07 07:50:16;;;;;;;36.65;19.58;;;19.30;99.90;;;;;;4973995;28;20031;-91
2023/09/07 07:52:42;;;;;;;34.38;19.67;;;19.40;99.90;;;;;;4973653;28;20066;-92
2023/09/07 07:55:09;;;;;;;37.90;19.35;;;19.50;99.90;;;;;;4975228;28;20058;-91
2023/09/07 07:57:34;;;;;;;33.03;19.60;;;19.60;99.90;;;;;;4974014;28;20089;-92
2023/09/07 08:00:00;;;;;;;33.08;18.42;;;19.70;99.90;;;;;;4977995;28;20022;-93
2023/09/07 08:02:26;;;;;;;30.27;18.33;;;19.80;99.90;;;;;;4977355;28;20030;-92
2023/09/07 08:04:52;;;;;;;26.00;14.80;;;19.90;99.90;;;;;;4980587;28;20026;-92
2023/09/07 08:07:17;;;;;;;29.55;16.45;;;20.00;99.90;;;;;;4973624;28;20455;-91
2023/09/07 08:09:43;;;;;;;24.15;14.48;;;20.10;99.90;;;;;;4974541;28;20114;-92
2023/09/07 08:12:09;;;;;;;26.83;15.50;;;20.20;99.90;;;;;;4973380;28;20039;-91
2023/09/07 08:14:35;;;;;;;26.75;16.75;;;20.40;99.90;;;;;;4972836;28;20035;-91
2023/09/07 08:17:01;;;;;;;28.35;16.55;;;20.40;99.90;;;;;;4973805;28;20038;-91
2023/09/07 08:19:30;;;;;;;29.70;16.77;;;20.60;99.90;;;;;;4973332;28;20033;-91
2023/09/07 08:21:58;;;;;;;27.52;14.90;;;20.70;99.90;;;;;;4974117;28;20157;-91
2023/09/07 08:24:23;;;;;;;22.05;12.23;;;20.80;99.90;;;;;;4973072;28;20054;-91
2023/09/07 08:26:54;;;;;;;21.92;12.98;;;20.90;99.90;;;;;;4983362;28;20529;-92
2023/09/07 08:29:20;;;;;;;26.92;13.65;;;21.00;99.90;;;;;;4983308;28;20062;-91
2023/09/07 08:31:47;;;;;;;24.02;13.23;;;21.10;99.90;;;;;;4984637;28;20042;-91
2023/09/07 08:34:14;;;;;;;20.27;12.05;;;21.30;99.90;;;;;;4979442;28;20055;-91
2023/09/07 08:36:40;;;;;;;20.77;11.88;;;21.40;99.90;;;;;;4974978;28;20027;-92
2023/09/07 08:39:09;;;;;;;17.48;10.55;;;21.50;99.90;;;;;;4983254;28;20034;-93
2023/09/07 08:41:43;;;;;;;16.27;9.82;;;21.70;99.90;;;;;;4977986;28;20096;-91
2023/09/07 08:44:10;;;;;;;19.08;10.13;;;21.80;99.90;;;;;;4973102;28;20117;-91
2023/09/07 08:46:37;;;;;;;17.33;8.77;;;21.90;99.90;;;;;;4973350;28;20034;-90
2023/09/07 08:49:04;;;;;;;15.43;8.73;;;22.10;99.90;;;;;;4972942;28;20030;-92
2023/09/07 08:51:31;;;;;;;17.65;8.90;;;22.20;99.90;;;;;;4972932;28;20035;-91
2023/09/07 08:53:57;;;;;;;11.70;7.90;;;22.30;99.90;;;;;;4974954;28;20030;-93
2023/09/07 08:56:24;;;;;;;11.23;7.55;;;22.40;99.90;;;;;;4976991;28;20015;-94
2023/09/07 08:58:50;;;;;;;14.40;8.23;;;22.50;99.90;;;;;;4985901;28;20052;-91
2023/09/07 09:01:16;;;;;;;15.82;7.72;;;22.60;99.90;;;;;;4980935;28;20037;-93
2023/09/07 09:03:43;;;;;;;12.25;7.57;;;22.70;99.90;;;;;;4976465;28;20105;-94
2023/09/07 09:06:12;;;;;;;12.93;6.90;;;22.90;99.90;;;;;;4976131;28;20023;-94
2023/09/07 09:08:50;;;;;;;10.80;6.45;;;23.00;99.90;;;;;;4976360;28;20023;-94
2023/09/07 09:11:17;;;;;;;9.65;5.82;;;23.20;99.90;;;;;;4977330;28;20085;-95
2023/09/07 09:13:43;;;;;;;8.98;5.80;;;23.30;99.90;;;;;;4977937;28;20034;-94
2023/09/07 09:16:10;;;;;;;10.68;5.13;;;23.50;99.90;;;;;;4976724;28;20022;-91
2023/09/07 09:18:37;;;;;;;8.45;5.28;;;23.70;99.90;;;;;;4974343;28;20019;-93
2023/09/07 09:21:04;;;;;;;10.40;5.13;;;23.90;99.90;;;;;;4990888;28;20030;-93
2023/09/07 09:23:34;;;;;;;7.95;4.97;;;24.00;99.90;;;;;;4990465;28;20166;-93
2023/09/07 09:26:02;;;;;;;10.55;5.20;;;24.30;99.90;;;;;;4985076;28;20114;-91
2023/09/07 09:28:28;;;;;;;10.07;5.30;;;24.30;98.70;;;;;;4982905;28;20042;-91
2023/09/07 09:30:55;;;;;;;7.55;4.90;;;24.40;98.60;;;;;;4976071;28;20027;-92
2023/09/07 09:33:21;;;;;;;6.75;4.30;;;24.60;98.80;;;;;;4977774;28;20133;-91
2023/09/07 09:35:47;;;;;;;6.93;4.20;;;24.80;97.40;;;;;;4976742;28;20033;-92
2023/09/07 09:38:14;;;;;;;9.98;4.03;;;25.00;96.80;;;;;;4985894;28;20085;-92
2023/09/07 09:40:40;;;;;;;8.70;4.10;;;25.20;95.80;;;;;;4986980;28;20046;-92
2023/09/07 09:43:08;;;;;;;8.95;3.83;;;25.40;94.60;;;;;;4985090;28;20026;-91
2023/09/07 09:45:35;;;;;;;7.10;3.60;;;25.60;93.80;;;;;;4982557;28;20022;-91
2023/09/07 09:48:03;;;;;;;5.53;3.95;;;25.80;92.40;;;;;;4985510;28;20031;-91
2023/09/07 09:50:29;;;;;;;7.35;3.67;;;25.90;91.20;;;;;;4986111;28;20026;-92
2023/09/07 09:52:56;;;;;;;6.80;3.70;;;26.10;90.60;;;;;;4985441;28;20027;-91
2023/09/07 09:55:22;;;;;;;5.38;3.55;;;26.30;89.30;;;;;;4985941;28;20030;-91
2023/09/07 09:57:49;;;;;;;7.55;3.97;;;26.40;86.90;;;;;;4987527;28;20030;-92
2023/09/07 10:00:25;;;;;;;9.80;3.70;;;26.50;85.40;;;;;;4983672;28;20041;-92
2023/09/07 10:03:18;;;;;;;8.07;3.58;;;26.60;83.80;;;;;;4982929;28;20109;-92
2023/09/07 10:05:47;;;;;;;7.00;3.95;;;26.60;82.00;;;;;;4982280;28;20034;-90
2023/09/07 10:08:14;;;;;;;5.60;3.58;;;26.70;82.10;;;;;;4995169;28;20033;-91
2023/09/07 10:10:41;;;;;;;7.25;3.90;;;26.70;81.60;;;;;;4984253;28;20018;-90
2023/09/07 10:13:07;;;;;;;5.45;3.55;;;26.80;81.20;;;;;;4986058;28;20050;-93
2023/09/07 10:15:35;;;;;;;7.82;4.00;;;26.80;80.60;;;;;;4982546;28;20438;-91
2023/09/07 10:18:16;;;;;;;9.05;4.15;;;26.70;80.00;;;;;;4981329;28;20035;-92
2023/09/07 10:20:56;;;;;;;8.00;4.15;;;26.80;79.00;;;;;;4989690;28;20117;-91
2023/09/07 10:23:23;;;;;;;8.05;4.10;;;26.80;78.50;;;;;;4984250;28;20030;-90
2023/09/07 10:25:50;;;;;;;8.30;4.18;;;26.90;78.20;;;;;;4990766;28;20030;-92
2023/09/07 10:28:26;;;;;;;5.80;4.22;;;27.00;77.60;;;;;;4986412;28;20042;-93
2023/09/07 10:31:25;;;;;;;6.35;3.72;;;27.00;76.90;;;;;;4986212;28;20030;-93
2023/09/07 10:33:51;;;;;;;6.43;3.63;;;27.10;77.20;;;;;;4959364;28;20072;-93
2023/09/07 10:36:27;;;;;;;7.20;4.03;;;27.40;77.40;;;;;;4975371;28;20086;-92
2023/09/07 10:38:55;;;;;;;9.60;4.35;;;27.60;76.50;;;;;;4975363;28;20477;-92
2023/09/07 10:41:22;;;;;;;5.32;3.92;;;27.60;75.40;;;;;;4975605;28;20050;-91
2023/09/07 10:43:50;;;;;;;4.85;3.72;;;27.60;75.40;;;;;;4980830;28;20598;-93
2023/09/07 10:46:19;;;;;;;10.52;4.22;;;27.80;75.50;;;;;;4980946;28;20034;-92
2023/09/07 10:48:44;;;;;;;8.70;3.45;;;27.80;75.20;;;;;;4975253;28;20062;-93
2023/09/07 10:51:10;;;;;;;9.88;5.53;;;28.00;75.30;;;;;;4976128;28;20027;-93
2023/09/07 10:53:36;;;;;;;5.93;4.00;;;28.20;74.40;;;;;;4976122;28;20047;-93
2023/09/07 10:56:05;;;;;;;6.32;4.82;;;28.10;73.80;;;;;;4974561;28;20031;-93
2023/09/07 10:58:39;;;;;;;8.63;4.90;;;28.10;74.00;;;;;;4975635;28;20402;-94
2023/09/07 11:01:05;;;;;;;10.32;5.18;;;28.10;73.90;;;;;;4976559;28;20031;-93
2023/09/07 11:03:31;;;;;;;8.70;5.68;;;28.10;74.00;;;;;;4975119;28;20031;-94
2023/09/07 11:06:05;;;;;;;9.68;5.40;;;28.10;73.80;;;;;;4975031;28;20390;-92
2023/09/07 11:08:31;;;;;;;11.15;7.05;;;28.30;73.50;;;;;;4974574;28;20038;-92
2023/09/07 11:10:57;;;;;;;9.70;5.57;;;28.40;72.70;;;;;;4974804;28;20046;-93
2023/09/07 11:13:26;;;;;;;6.90;5.68;;;28.30;72.80;;;;;;4974160;28;20131;-93
2023/09/07 11:15:59;;;;;;;11.02;6.55;;;28.50;73.10;;;;;;4974576;28;20022;-92
2023/09/07 11:18:25;;;;;;;8.57;6.07;;;28.50;72.60;;;;;;4976257;28;20030;-92
2023/09/07 11:20:53;;;;;;;11.43;6.38;;;28.60;72.60;;;;;;4986955;28;20090;-91
2023/09/07 11:23:20;;;;;;;10.73;6.40;;;28.70;72.70;;;;;;4986083;28;20034;-92
2023/09/07 11:25:48;;;;;;;13.23;8.52;;;28.90;72.80;;;;;;4987130;28;20505;-92
2023/09/07 11:28:17;;;;;;;12.13;8.68;;;29.20;72.50;;;;;;4984796;28;20224;-90
2023/09/07 11:31:03;;;;;;;16.08;8.73;;;29.30;71.80;;;;;;4978941;28;20027;-91
2023/09/07 11:33:32;;;;;;;12.25;8.48;;;29.40;71.60;;;;;;4978458;28;20406;-92
2023/09/07 11:35:57;;;;;;;13.20;8.25;;;29.50;71.20;;;;;;4974857;28;20034;-92
2023/09/07 11:38:28;;;;;;;17.80;9.43;;;29.70;71.30;;;;;;4974752;28;20121;-90
2023/09/07 11:40:54;;;;;;;17.13;8.68;;;29.90;70.80;;;;;;4975628;28;20031;-92
2023/09/07 11:43:19;;;;;;;14.70;9.63;;;30.00;70.50;;;;;;4973904;28;20033;-89
2023/09/07 11:45:49;;;;;;;14.40;8.35;;;30.00;70.50;;;;;;4975105;28;20073;-92
2023/09/07 11:48:16;;;;;;;17.25;8.75;;;30.10;70.30;;;;;;4976267;28;20023;-93
2023/09/07 11:50:43;;;;;;;12.68;7.93;;;30.30;70.10;;;;;;4975322;28;20027;-94
2023/09/07 11:53:09;;;;;;;16.48;9.38;;;30.30;70.00;;;;;;4973971;28;20038;-93
2023/09/07 11:55:35;;;;;;;13.18;9.05;;;30.40;70.10;;;;;;4977905;28;20114;-94
2023/09/07 11:58:02;;;;;;;12.98;9.77;;;30.50;70.00;;;;;;4973937;28;20054;-92
2023/09/07 12:00:29;;;;;;;17.08;7.88;;;30.60;69.70;;;;;;4974061;28;20613;-93
2023/09/07 12:02:55;;;;;;;15.43;8.40;;;30.60;69.80;;;;;;4974641;28;20143;-93
2023/09/07 12:05:21;;;;;;;14.70;8.05;;;30.70;69.60;;;;;;4973641;28;20617;-93
2023/09/07 12:07:47;;;;;;;13.18;8.55;;;30.70;69.50;;;;;;4984108;28;20032;-93
2023/09/07 12:10:13;;;;;;;17.92;7.72;;;30.70;69.60;;;;;;4992465;28;20030;-93
2023/09/07 12:12:43;;;;;;;12.77;8.45;;;30.70;69.50;;;;;;5007177;28;20034;-92
2023/09/07 12:15:11;;;;;;;12.70;7.80;;;30.80;69.40;;;;;;4983573;28;20492;-92
2023/09/07 12:17:37;;;;;;;17.77;8.73;;;30.70;69.40;;;;;;4973917;28;20027;-92
2023/09/07 12:20:05;;;;;;;10.73;7.50;;;30.50;69.50;;;;;;4973278;28;20508;-91
2023/09/07 12:22:32;;;;;;;12.18;8.40;;;30.30;69.80;;;;;;4972287;28;20035;-93
2023/09/07 12:24:57;;;;;;;12.70;7.63;;;30.10;70.30;;;;;;4972906;28;20122;-91
2023/09/07 12:27:23;;;;;;;14.32;8.60;;;29.80;70.70;;;;;;4973414;28;20058;-93
2023/09/07 12:29:49;;;;;;;13.43;7.32;;;29.60;70.90;;;;;;4976600;28;20027;-92